sensor_id;sensor_type;location;lat;lon;timestamp;temperature;humidity
67502;SHT30;54349;52.528;19.760;2022-07-29T00:01:19;23.32;49.51
67502;SHT30;54349;52.528;19.760;2022-07-29T00:03:47;23.13;50.42
67502;SHT30;54349;52.528;19.760;2022-07-29T00:06:16;23.15;50.53
67502;SHT30;54349;52.528;19.760;2022-07-29T00:08:45;23.21;50.53
67502;SHT30;54349;52.528;19.760;2022-07-29T00:11:13;23.25;50.50
67502;SHT30;54349;52.528;19.760;2022-07-29T00:13:41;23.31;50.50
67502;SHT30;54349;52.528;19.760;2022-07-29T00:16:15;23.35;50.43
67502;SHT30;54349;52.528;19.760;2022-07-29T00:18:43;23.33;50.02
67502;SHT30;54349;52.528;19.760;2022-07-29T00:21:12;23.16;50.59
67502;SHT30;54349;52.528;19.760;2022-07-29T00:23:40;23.18;50.65
67502;SHT30;54349;52.528;19.760;2022-07-29T00:26:08;23.23;50.63
67502;SHT30;54349;52.528;19.760;2022-07-29T00:28:36;23.28;50.60
67502;SHT30;54349;52.528;19.760;2022-07-29T00:31:04;23.32;50.54
67502;SHT30;54349;52.528;19.760;2022-07-29T00:33:33;23.35;50.21
67502;SHT30;54349;52.528;19.760;2022-07-29T00:36:01;23.17;50.44
67502;SHT30;54349;52.528;19.760;2022-07-29T00:38:29;23.13;50.72
67502;SHT30;54349;52.528;19.760;2022-07-29T00:40:57;23.19;50.72
67502;SHT30;54349;52.528;19.760;2022-07-29T00:43:26;23.24;50.70
67502;SHT30;54349;52.528;19.760;2022-07-29T00:45:54;23.28;50.66
67502;SHT30;54349;52.528;19.760;2022-07-29T00:48:22;23.31;50.52
67502;SHT30;54349;52.528;19.760;2022-07-29T00:50:50;23.22;50.10
67502;SHT30;54349;52.528;19.760;2022-07-29T00:53:19;23.12;50.68
67502;SHT30;54349;52.528;19.760;2022-07-29T00:55:48;23.15;50.70
67502;SHT30;54349;52.528;19.760;2022-07-29T00:58:21;23.21;50.68
67502;SHT30;54349;52.528;19.760;2022-07-29T01:00:50;23.25;50.61
67502;SHT30;54349;52.528;19.760;2022-07-29T01:03:20;23.30;50.58
67502;SHT30;54349;52.528;19.760;2022-07-29T01:05:47;23.25;50.02
67502;SHT30;54349;52.528;19.760;2022-07-29T01:08:18;23.10;50.66
67502;SHT30;54349;52.528;19.760;2022-07-29T01:10:47;23.12;50.70
67502;SHT30;54349;52.528;19.760;2022-07-29T01:13:18;23.18;50.69
67502;SHT30;54349;52.528;19.760;2022-07-29T01:15:49;23.23;50.61
67502;SHT30;54349;52.528;19.760;2022-07-29T01:18:32;23.27;50.60
67502;SHT30;54349;52.528;19.760;2022-07-29T01:24:07;23.09;50.65
67502;SHT30;54349;52.528;19.760;2022-07-29T01:30:10;23.17;50.70
67502;SHT30;54349;52.528;19.760;2022-07-29T01:32:42;23.22;50.67
67502;SHT30;54349;52.528;19.760;2022-07-29T01:35:23;23.26;50.61
67502;SHT30;54349;52.528;19.760;2022-07-29T01:38:22;23.26;50.08
67502;SHT30;54349;52.528;19.760;2022-07-29T01:40:58;23.08;50.70
67502;SHT30;54349;52.528;19.760;2022-07-29T01:43:42;23.10;50.79
67502;SHT30;54349;52.528;19.760;2022-07-29T01:46:27;23.16;50.73
67502;SHT30;54349;52.528;19.760;2022-07-29T01:49:07;23.21;50.69
67502;SHT30;54349;52.528;19.760;2022-07-29T01:51:56;23.26;50.66
67502;SHT30;54349;52.528;19.760;2022-07-29T01:54:38;23.25;50.06
67502;SHT30;54349;52.528;19.760;2022-07-29T01:57:14;23.05;50.72
67502;SHT30;54349;52.528;19.760;2022-07-29T01:59:46;23.07;50.80
67502;SHT30;54349;52.528;19.760;2022-07-29T02:02:17;23.12;50.77
67502;SHT30;54349;52.528;19.760;2022-07-29T02:04:47;23.17;50.71
67502;SHT30;54349;52.528;19.760;2022-07-29T02:07:19;23.22;50.68
67502;SHT30;54349;52.528;19.760;2022-07-29T02:09:51;23.26;50.53
67502;SHT30;54349;52.528;19.760;2022-07-29T02:12:22;23.15;50.12
67502;SHT30;54349;52.528;19.760;2022-07-29T02:14:53;23.03;50.72
67502;SHT30;54349;52.528;19.760;2022-07-29T02:17:27;23.07;50.76
67502;SHT30;54349;52.528;19.760;2022-07-29T02:20:05;23.11;50.72
67502;SHT30;54349;52.528;19.760;2022-07-29T02:22:36;23.16;50.69
67502;SHT30;54349;52.528;19.760;2022-07-29T02:25:09;23.21;50.64
67502;SHT30;54349;52.528;19.760;2022-07-29T02:27:40;23.21;50.06
67502;SHT30;54349;52.528;19.760;2022-07-29T02:30:10;23.02;50.61
67502;SHT30;54349;52.528;19.760;2022-07-29T02:32:41;23.03;50.74
67502;SHT30;54349;52.528;19.760;2022-07-29T02:35:14;23.07;50.75
67502;SHT30;54349;52.528;19.760;2022-07-29T02:37:44;23.13;50.70
67502;SHT30;54349;52.528;19.760;2022-07-29T02:40:34;23.18;50.68
67502;SHT30;54349;52.528;19.760;2022-07-29T02:43:07;23.22;50.60
67502;SHT30;54349;52.528;19.760;2022-07-29T02:45:37;23.16;49.97
67502;SHT30;54349;52.528;19.760;2022-07-29T02:48:10;23.01;50.62
67502;SHT30;54349;52.528;19.760;2022-07-29T02:50:48;23.04;50.70
67502;SHT30;54349;52.528;19.760;2022-07-29T02:53:27;23.10;50.69
67502;SHT30;54349;52.528;19.760;2022-07-29T02:56:04;23.14;50.60
67502;SHT30;54349;52.528;19.760;2022-07-29T02:58:41;23.20;50.59
67502;SHT30;54349;52.528;19.760;2022-07-29T03:01:25;23.23;50.45
67502;SHT30;54349;52.528;19.760;2022-07-29T03:04:00;23.12;49.97
67502;SHT30;54349;52.528;19.760;2022-07-29T03:06:32;23.02;50.60
67502;SHT30;54349;52.528;19.760;2022-07-29T03:09:08;23.05;50.62
67502;SHT30;54349;52.528;19.760;2022-07-29T03:11:40;23.11;50.60
67502;SHT30;54349;52.528;19.760;2022-07-29T03:14:18;23.15;50.58
67502;SHT30;54349;52.528;19.760;2022-07-29T03:16:48;23.19;50.57
67502;SHT30;54349;52.528;19.760;2022-07-29T03:19:18;23.22;50.25
67502;SHT30;54349;52.528;19.760;2022-07-29T03:21:48;23.07;50.04
67502;SHT30;54349;52.528;19.760;2022-07-29T03:24:27;23.00;50.55
67502;SHT30;54349;52.528;19.760;2022-07-29T03:26:59;23.05;50.60
67502;SHT30;54349;52.528;19.760;2022-07-29T03:29:28;23.09;50.56
67502;SHT30;54349;52.528;19.760;2022-07-29T03:32:04;23.13;50.52
67502;SHT30;54349;52.528;19.760;2022-07-29T03:34:35;23.18;50.50
67502;SHT30;54349;52.528;19.760;2022-07-29T03:37:05;23.21;50.42
67502;SHT30;54349;52.528;19.760;2022-07-29T03:39:35;23.10;49.86
67502;SHT30;54349;52.528;19.760;2022-07-29T03:42:10;22.96;50.58
67502;SHT30;54349;52.528;19.760;2022-07-29T03:44:43;23.00;50.62
67502;SHT30;54349;52.528;19.760;2022-07-29T03:47:15;23.05;50.63
67502;SHT30;54349;52.528;19.760;2022-07-29T03:49:48;23.09;50.58
67502;SHT30;54349;52.528;19.760;2022-07-29T03:52:21;23.14;50.58
67502;SHT30;54349;52.528;19.760;2022-07-29T03:54:50;23.19;50.58
67502;SHT30;54349;52.528;19.760;2022-07-29T03:57:19;23.12;49.87
67502;SHT30;54349;52.528;19.760;2022-07-29T03:59:54;22.97;50.58
67502;SHT30;54349;52.528;19.760;2022-07-29T04:02:23;23.00;50.66
67502;SHT30;54349;52.528;19.760;2022-07-29T04:04:57;23.04;50.65
67502;SHT30;54349;52.528;19.760;2022-07-29T04:07:26;23.09;50.61
67502;SHT30;54349;52.528;19.760;2022-07-29T04:09:54;23.13;50.60
67502;SHT30;54349;52.528;19.760;2022-07-29T04:12:22;23.17;50.56
67502;SHT30;54349;52.528;19.760;2022-07-29T04:14:50;23.19;50.02
67502;SHT30;54349;52.528;19.760;2022-07-29T04:17:18;23.01;50.53
67502;SHT30;54349;52.528;19.760;2022-07-29T04:19:46;23.00;50.69
67502;SHT30;54349;52.528;19.760;2022-07-29T04:22:14;23.05;50.70
67502;SHT30;54349;52.528;19.760;2022-07-29T04:24:42;23.09;50.68
67502;SHT30;54349;52.528;19.760;2022-07-29T04:27:11;23.14;50.64
67502;SHT30;54349;52.528;19.760;2022-07-29T04:29:39;23.19;50.60
67502;SHT30;54349;52.528;19.760;2022-07-29T04:32:24;23.22;50.40
67502;SHT30;54349;52.528;19.760;2022-07-29T04:34:53;23.06;50.38
67502;SHT30;54349;52.528;19.760;2022-07-29T04:37:21;23.01;50.76
67502;SHT30;54349;52.528;19.760;2022-07-29T04:39:49;23.04;50.80
67502;SHT30;54349;52.528;19.760;2022-07-29T04:42:18;23.09;50.80
67502;SHT30;54349;52.528;19.760;2022-07-29T04:44:54;23.14;50.76
67502;SHT30;54349;52.528;19.760;2022-07-29T04:47:22;23.18;50.74
67502;SHT30;54349;52.528;19.760;2022-07-29T04:49:50;23.19;50.43
67502;SHT30;54349;52.528;19.760;2022-07-29T04:52:18;23.04;50.69
67502;SHT30;54349;52.528;19.760;2022-07-29T04:54:47;23.01;50.90
67502;SHT30;54349;52.528;19.760;2022-07-29T04:57:16;23.05;50.90
67502;SHT30;54349;52.528;19.760;2022-07-29T04:59:46;23.09;50.90
67502;SHT30;54349;52.528;19.760;2022-07-29T05:02:14;23.14;50.88
67502;SHT30;54349;52.528;19.760;2022-07-29T05:04:43;23.19;50.84
67502;SHT30;54349;52.528;19.760;2022-07-29T05:07:11;23.18;50.50
67502;SHT30;54349;52.528;19.760;2022-07-29T05:09:39;23.02;50.96
67502;SHT30;54349;52.528;19.760;2022-07-29T05:12:08;23.01;51.07
67502;SHT30;54349;52.528;19.760;2022-07-29T05:14:37;23.05;51.02
67502;SHT30;54349;52.528;19.760;2022-07-29T05:17:05;23.11;51.00
67502;SHT30;54349;52.528;19.760;2022-07-29T05:19:34;23.15;51.00
67502;SHT30;54349;52.528;19.760;2022-07-29T05:22:06;23.20;50.95
67502;SHT30;54349;52.528;19.760;2022-07-29T05:24:34;23.19;50.65
67502;SHT30;54349;52.528;19.760;2022-07-29T05:27:02;23.02;51.21
67502;SHT30;54349;52.528;19.760;2022-07-29T05:29:31;23.03;51.23
67502;SHT30;54349;52.528;19.760;2022-07-29T05:32:12;23.07;51.20
67502;SHT30;54349;52.528;19.760;2022-07-29T05:34:41;23.11;51.18
67502;SHT30;54349;52.528;19.760;2022-07-29T05:37:21;23.16;51.13
67502;SHT30;54349;52.528;19.760;2022-07-29T05:39:49;23.20;51.04
67502;SHT30;54349;52.528;19.760;2022-07-29T05:42:24;23.06;51.30
67502;SHT30;54349;52.528;19.760;2022-07-29T05:44:53;22.99;51.46
67502;SHT30;54349;52.528;19.760;2022-07-29T05:47:21;23.04;51.41
67502;SHT30;54349;52.528;19.760;2022-07-29T05:49:50;23.09;51.39
67502;SHT30;54349;52.528;19.760;2022-07-29T05:52:19;23.15;51.32
67502;SHT30;54349;52.528;19.760;2022-07-29T05:54:47;23.18;51.24
67502;SHT30;54349;52.528;19.760;2022-07-29T05:57:17;23.14;51.29
67502;SHT30;54349;52.528;19.760;2022-07-29T05:59:48;22.99;51.67
67502;SHT30;54349;52.528;19.760;2022-07-29T06:02:17;23.01;51.61
67502;SHT30;54349;52.528;19.760;2022-07-29T06:04:46;23.06;51.53
67502;SHT30;54349;52.528;19.760;2022-07-29T06:07:15;23.12;51.51
67502;SHT30;54349;52.528;19.760;2022-07-29T06:09:43;23.17;51.48
67502;SHT30;54349;52.528;19.760;2022-07-29T06:12:12;23.19;51.32
67502;SHT30;54349;52.528;19.760;2022-07-29T06:14:40;23.04;51.66
67502;SHT30;54349;52.528;19.760;2022-07-29T06:17:08;23.02;51.70
67502;SHT30;54349;52.528;19.760;2022-07-29T06:19:39;23.07;51.67
67502;SHT30;54349;52.528;19.760;2022-07-29T06:22:07;23.12;51.63
67502;SHT30;54349;52.528;19.760;2022-07-29T06:24:35;23.17;51.58
67502;SHT30;54349;52.528;19.760;2022-07-29T06:27:05;23.21;51.53
67502;SHT30;54349;52.528;19.760;2022-07-29T06:29:33;23.08;51.84
67502;SHT30;54349;52.528;19.760;2022-07-29T06:32:02;23.05;51.81
67502;SHT30;54349;52.528;19.760;2022-07-29T06:34:31;23.09;51.79
67502;SHT30;54349;52.528;19.760;2022-07-29T06:36:59;23.15;51.75
67502;SHT30;54349;52.528;19.760;2022-07-29T06:39:27;23.20;51.72
67502;SHT30;54349;52.528;19.760;2022-07-29T06:41:55;23.23;51.67
67502;SHT30;54349;52.528;19.760;2022-07-29T06:44:24;23.09;52.13
67502;SHT30;54349;52.528;19.760;2022-07-29T06:46:52;23.06;52.02
67502;SHT30;54349;52.528;19.760;2022-07-29T06:49:22;23.11;51.98
67502;SHT30;54349;52.528;19.760;2022-07-29T06:51:52;23.16;51.92
67502;SHT30;54349;52.528;19.760;2022-07-29T06:54:20;23.22;51.89
67502;SHT30;54349;52.528;19.760;2022-07-29T06:56:49;23.23;51.92
67502;SHT30;54349;52.528;19.760;2022-07-29T06:59:17;23.11;52.38
67502;SHT30;54349;52.528;19.760;2022-07-29T07:01:52;23.10;52.16
67502;SHT30;54349;52.528;19.760;2022-07-29T07:04:20;23.16;52.09
67502;SHT30;54349;52.528;19.760;2022-07-29T07:06:48;23.20;52.04
67502;SHT30;54349;52.528;19.760;2022-07-29T07:09:16;23.24;52.02
67502;SHT30;54349;52.528;19.760;2022-07-29T07:11:44;23.18;52.37
67502;SHT30;54349;52.528;19.760;2022-07-29T07:14:16;23.10;52.34
67502;SHT30;54349;52.528;19.760;2022-07-29T07:16:45;23.14;52.28
67502;SHT30;54349;52.528;19.760;2022-07-29T07:19:14;23.19;52.20
67502;SHT30;54349;52.528;19.760;2022-07-29T07:21:42;23.24;52.20
67502;SHT30;54349;52.528;19.760;2022-07-29T07:24:10;23.25;52.23
67502;SHT30;54349;52.528;19.760;2022-07-29T07:26:39;23.16;52.56
67502;SHT30;54349;52.528;19.760;2022-07-29T07:29:07;23.17;52.39
67502;SHT30;54349;52.528;19.760;2022-07-29T07:31:36;23.21;52.30
67502;SHT30;54349;52.528;19.760;2022-07-29T07:34:05;23.26;52.28
67502;SHT30;54349;52.528;19.760;2022-07-29T07:36:33;23.28;51.82
67502;SHT30;54349;52.528;19.760;2022-07-29T07:39:01;23.13;52.42
67502;SHT30;54349;52.528;19.760;2022-07-29T07:41:31;23.10;52.37
67502;SHT30;54349;52.528;19.760;2022-07-29T07:43:59;23.15;52.31
67502;SHT30;54349;52.528;19.760;2022-07-29T07:46:27;23.19;52.27
67502;SHT30;54349;52.528;19.760;2022-07-29T07:48:56;23.25;52.21
67502;SHT30;54349;52.528;19.760;2022-07-29T07:51:24;23.26;52.38
67502;SHT30;54349;52.528;19.760;2022-07-29T07:53:52;23.20;52.53
67502;SHT30;54349;52.528;19.760;2022-07-29T07:56:21;23.23;52.39
67502;SHT30;54349;52.528;19.760;2022-07-29T07:58:49;23.28;52.29
67502;SHT30;54349;52.528;19.760;2022-07-29T08:01:17;23.33;52.22
67502;SHT30;54349;52.528;19.760;2022-07-29T08:03:47;23.33;52.40
67502;SHT30;54349;52.528;19.760;2022-07-29T08:06:15;23.25;52.50
67502;SHT30;54349;52.528;19.760;2022-07-29T08:08:43;23.28;52.37
67502;SHT30;54349;52.528;19.760;2022-07-29T08:11:12;23.33;52.29
67502;SHT30;54349;52.528;19.760;2022-07-29T08:13:40;23.37;52.21
67502;SHT30;54349;52.528;19.760;2022-07-29T08:16:09;23.41;52.24
67502;SHT30;54349;52.528;19.760;2022-07-29T08:18:41;23.33;52.50
67502;SHT30;54349;52.528;19.760;2022-07-29T08:21:12;23.32;52.38
67502;SHT30;54349;52.528;19.760;2022-07-29T08:23:43;23.36;52.30
67502;SHT30;54349;52.528;19.760;2022-07-29T08:26:19;23.42;52.23
67502;SHT30;54349;52.528;19.760;2022-07-29T08:28:49;23.47;52.18
67502;SHT30;54349;52.528;19.760;2022-07-29T08:31:18;23.41;52.27
67502;SHT30;54349;52.528;19.760;2022-07-29T08:33:46;23.34;52.32
67502;SHT30;54349;52.528;19.760;2022-07-29T08:36:14;23.39;52.25
67502;SHT30;54349;52.528;19.760;2022-07-29T08:38:42;23.44;52.16
67502;SHT30;54349;52.528;19.760;2022-07-29T08:41:10;23.49;52.06
67502;SHT30;54349;52.528;19.760;2022-07-29T08:43:39;23.50;51.91
67502;SHT30;54349;52.528;19.760;2022-07-29T08:46:08;23.42;52.11
67502;SHT30;54349;52.528;19.760;2022-07-29T08:48:36;23.41;52.09
67502;SHT30;54349;52.528;19.760;2022-07-29T08:51:06;23.46;52.01
67502;SHT30;54349;52.528;19.760;2022-07-29T08:53:37;23.51;51.92
67502;SHT30;54349;52.528;19.760;2022-07-29T08:56:05;23.55;51.77
67502;SHT30;54349;52.528;19.760;2022-07-29T08:58:34;23.47;51.86
67502;SHT30;54349;52.528;19.760;2022-07-29T09:01:05;23.43;51.99
67502;SHT30;54349;52.528;19.760;2022-07-29T09:03:40;23.48;51.89
67502;SHT30;54349;52.528;19.760;2022-07-29T09:06:17;23.53;51.84
67502;SHT30;54349;52.528;19.760;2022-07-29T09:08:47;23.58;51.65
67502;SHT30;54349;52.528;19.760;2022-07-29T09:11:16;23.53;51.67
67502;SHT30;54349;52.528;19.760;2022-07-29T09:13:44;23.47;51.85
67502;SHT30;54349;52.528;19.760;2022-07-29T09:16:12;23.51;51.80
67502;SHT30;54349;52.528;19.760;2022-07-29T09:19:01;23.57;51.66
67502;SHT30;54349;52.528;19.760;2022-07-29T09:21:29;23.64;51.58
67502;SHT30;54349;52.528;19.760;2022-07-29T09:27:02;23.53;51.62
67502;SHT30;54349;52.528;19.760;2022-07-29T09:29:36;23.52;51.63
67502;SHT30;54349;52.528;19.760;2022-07-29T09:32:06;23.58;51.57
67502;SHT30;54349;52.528;19.760;2022-07-29T09:34:38;23.64;51.46
67502;SHT30;54349;52.528;19.760;2022-07-29T09:37:06;23.70;51.32
67502;SHT30;54349;52.528;19.760;2022-07-29T09:39:36;23.67;51.19
67502;SHT30;54349;52.528;19.760;2022-07-29T09:42:13;23.58;51.51
67502;SHT30;54349;52.528;19.760;2022-07-29T09:44:57;23.60;51.44
67502;SHT30;54349;52.528;19.760;2022-07-29T09:47:25;23.66;51.40
67502;SHT30;54349;52.528;19.760;2022-07-29T09:50:16;23.74;51.27
67502;SHT30;54349;52.528;19.760;2022-07-29T09:52:51;23.77;51.02
67502;SHT30;54349;52.528;19.760;2022-07-29T09:55:23;23.67;51.16
67502;SHT30;54349;52.528;19.760;2022-07-29T09:57:51;23.61;51.32
67502;SHT30;54349;52.528;19.760;2022-07-29T10:00:20;23.65;51.28
67502;SHT30;54349;52.528;19.760;2022-07-29T10:02:51;23.71;51.21
67502;SHT30;54349;52.528;19.760;2022-07-29T10:05:29;23.77;51.09
67502;SHT30;54349;52.528;19.760;2022-07-29T10:08:03;23.76;50.94
67502;SHT30;54349;52.528;19.760;2022-07-29T10:10:34;23.65;51.19
67502;SHT30;54349;52.528;19.760;2022-07-29T10:13:06;23.66;51.22
67502;SHT30;54349;52.528;19.760;2022-07-29T10:15:43;23.72;51.13
67502;SHT30;54349;52.528;19.760;2022-07-29T10:18:14;23.78;51.05
67502;SHT30;54349;52.528;19.760;2022-07-29T10:20:45;23.82;50.85
67502;SHT30;54349;52.528;19.760;2022-07-29T10:23:13;23.75;50.88
67502;SHT30;54349;52.528;19.760;2022-07-29T10:25:41;23.66;51.19
67502;SHT30;54349;52.528;19.760;2022-07-29T10:28:13;23.69;51.12
67502;SHT30;54349;52.528;19.760;2022-07-29T10:30:43;23.76;51.04
67502;SHT30;54349;52.528;19.760;2022-07-29T10:43:17;23.72;51.04
67502;SHT30;54349;52.528;19.760;2022-07-29T10:45:54;23.80;50.93
67502;SHT30;54349;52.528;19.760;2022-07-29T10:48:26;23.87;50.80
67502;SHT30;54349;52.528;19.760;2022-07-29T10:50:59;23.92;50.56
67502;SHT30;54349;52.528;19.760;2022-07-29T11:01:52;23.83;50.80
67502;SHT30;54349;52.528;19.760;2022-07-29T11:07:16;23.95;50.43
67502;SHT30;54349;52.528;19.760;2022-07-29T11:09:44;23.83;50.57
67502;SHT30;54349;52.528;19.760;2022-07-29T11:15:11;23.78;50.83
67502;SHT30;54349;52.528;19.760;2022-07-29T11:20:40;23.95;50.53
67502;SHT30;54349;52.528;19.760;2022-07-29T11:26:14;23.79;50.73
67502;SHT30;54349;52.528;19.760;2022-07-29T11:39:40;23.85;50.52
67502;SHT30;54349;52.528;19.760;2022-07-29T11:48:17;23.91;50.56
67502;SHT30;54349;52.528;19.760;2022-07-29T11:50:58;24.01;50.40
67502;SHT30;54349;52.528;19.760;2022-07-29T11:53:27;24.02;50.21
67502;SHT30;54349;52.528;19.760;2022-07-29T11:56:00;23.91;50.30
67502;SHT30;54349;52.528;19.760;2022-07-29T11:58:30;23.81;50.81
67502;SHT30;54349;52.528;19.760;2022-07-29T12:00:59;23.85;50.67
67502;SHT30;54349;52.528;19.760;2022-07-29T12:03:31;23.92;50.52
67502;SHT30;54349;52.528;19.760;2022-07-29T12:06:10;24.00;50.38
67502;SHT30;54349;52.528;19.760;2022-07-29T12:09:06;24.00;50.19
67502;SHT30;54349;52.528;19.760;2022-07-29T12:11:41;23.90;50.49
67502;SHT30;54349;52.528;19.760;2022-07-29T12:17:01;23.97;50.43
67502;SHT30;54349;52.528;19.760;2022-07-29T12:19:41;24.03;50.31
67502;SHT30;54349;52.528;19.760;2022-07-29T12:22:11;24.10;50.09
67502;SHT30;54349;52.528;19.760;2022-07-29T12:24:43;24.01;50.17
67502;SHT30;54349;52.528;19.760;2022-07-29T12:27:16;23.88;50.05
67502;SHT30;54349;52.528;19.760;2022-07-29T12:29:56;23.78;50.53
67502;SHT30;54349;52.528;19.760;2022-07-29T12:32:42;23.81;50.46
67502;SHT30;54349;52.528;19.760;2022-07-29T12:35:18;23.90;50.51
67502;SHT30;54349;52.528;19.760;2022-07-29T12:37:48;23.99;50.25
67502;SHT30;54349;52.528;19.760;2022-07-29T12:40:19;24.04;50.30
67502;SHT30;54349;52.528;19.760;2022-07-29T12:45:38;23.87;50.68
67502;SHT30;54349;52.528;19.760;2022-07-29T12:48:10;23.90;50.50
67502;SHT30;54349;52.528;19.760;2022-07-29T12:54:00;24.09;50.17
67502;SHT30;54349;52.528;19.760;2022-07-29T12:56:30;24.17;49.92
67502;SHT30;54349;52.528;19.760;2022-07-29T12:59:17;24.10;49.97
67502;SHT30;54349;52.528;19.760;2022-07-29T13:01:49;23.95;49.97
67502;SHT30;54349;52.528;19.760;2022-07-29T13:04:29;23.88;50.42
67502;SHT30;54349;52.528;19.760;2022-07-29T13:09:40;24.05;50.26
67502;SHT30;54349;52.528;19.760;2022-07-29T13:12:12;24.14;50.13
67502;SHT30;54349;52.528;19.760;2022-07-29T13:14:45;24.20;49.93
67502;SHT30;54349;52.528;19.760;2022-07-29T13:17:16;24.13;49.90
67502;SHT30;54349;52.528;19.760;2022-07-29T13:19:49;24.01;49.82
67502;SHT30;54349;52.528;19.760;2022-07-29T13:22:35;23.96;50.19
67502;SHT30;54349;52.528;19.760;2022-07-29T13:25:03;24.01;50.17
67502;SHT30;54349;52.528;19.760;2022-07-29T13:27:34;24.09;50.08
67502;SHT30;54349;52.528;19.760;2022-07-29T13:30:06;24.17;50.00
67502;SHT30;54349;52.528;19.760;2022-07-29T13:32:37;24.16;49.91
67502;SHT30;54349;52.528;19.760;2022-07-29T13:35:07;24.05;49.94
67502;SHT30;54349;52.528;19.760;2022-07-29T13:37:37;23.94;50.49
67502;SHT30;54349;52.528;19.760;2022-07-29T13:40:07;23.97;50.36
67502;SHT30;54349;52.528;19.760;2022-07-29T13:42:36;24.05;50.25
67502;SHT30;54349;52.528;19.760;2022-07-29T13:45:07;24.13;50.06
67502;SHT30;54349;52.528;19.760;2022-07-29T13:47:38;24.20;49.89
67502;SHT30;54349;52.528;19.760;2022-07-29T13:50:14;24.17;49.82
67502;SHT30;54349;52.528;19.760;2022-07-29T13:52:41;24.05;50.05
67502;SHT30;54349;52.528;19.760;2022-07-29T13:55:10;23.97;50.32
67502;SHT30;54349;52.528;19.760;2022-07-29T13:57:38;24.03;50.24
67502;SHT30;54349;52.528;19.760;2022-07-29T14:00:07;24.09;50.12
67502;SHT30;54349;52.528;19.760;2022-07-29T14:02:36;24.17;49.93
67502;SHT30;54349;52.528;19.760;2022-07-29T14:05:06;24.14;49.81
67502;SHT30;54349;52.528;19.760;2022-07-29T14:07:38;24.03;49.88
67502;SHT30;54349;52.528;19.760;2022-07-29T14:10:06;23.95;50.41
67502;SHT30;54349;52.528;19.760;2022-07-29T14:12:36;23.98;50.26
67502;SHT30;54349;52.528;19.760;2022-07-29T14:15:05;24.05;50.19
67502;SHT30;54349;52.528;19.760;2022-07-29T14:17:33;24.12;50.08
67502;SHT30;54349;52.528;19.760;2022-07-29T14:20:02;24.18;49.84
67502;SHT30;54349;52.528;19.760;2022-07-29T14:22:32;24.15;49.83
67502;SHT30;54349;52.528;19.760;2022-07-29T14:25:08;24.04;49.77
67502;SHT30;54349;52.528;19.760;2022-07-29T14:27:42;23.96;49.85
67502;SHT30;54349;52.528;19.760;2022-07-29T14:30:11;23.94;50.18
67502;SHT30;54349;52.528;19.760;2022-07-29T14:32:40;24.01;50.35
67502;SHT30;54349;52.528;19.760;2022-07-29T14:35:08;24.10;50.18
67502;SHT30;54349;52.528;19.760;2022-07-29T14:37:37;24.18;49.84
67502;SHT30;54349;52.528;19.760;2022-07-29T14:40:08;24.17;49.87
67502;SHT30;54349;52.528;19.760;2022-07-29T14:42:38;24.06;49.92
67502;SHT30;54349;52.528;19.760;2022-07-29T14:45:07;23.99;50.42
67502;SHT30;54349;52.528;19.760;2022-07-29T14:47:37;24.03;50.21
67502;SHT30;54349;52.528;19.760;2022-07-29T14:50:07;24.11;50.07
67502;SHT30;54349;52.528;19.760;2022-07-29T14:52:36;24.20;49.90
67502;SHT30;54349;52.528;19.760;2022-07-29T14:55:04;24.23;49.70
67502;SHT30;54349;52.528;19.760;2022-07-29T14:57:47;24.13;49.80
67502;SHT30;54349;52.528;19.760;2022-07-29T15:00:17;24.02;49.57
67502;SHT30;54349;52.528;19.760;2022-07-29T15:02:46;23.93;50.12
67502;SHT30;54349;52.528;19.760;2022-07-29T15:05:30;23.94;50.05
67502;SHT30;54349;52.528;19.760;2022-07-29T15:07:59;24.01;50.09
67502;SHT30;54349;52.528;19.760;2022-07-29T15:10:28;24.09;49.95
67502;SHT30;54349;52.528;19.760;2022-07-29T15:12:57;24.14;50.03
67502;SHT30;54349;52.528;19.760;2022-07-29T15:15:25;24.07;49.98
67502;SHT30;54349;52.528;19.760;2022-07-29T15:17:53;23.94;50.30
67502;SHT30;54349;52.528;19.760;2022-07-29T15:20:21;23.94;50.37
67502;SHT30;54349;52.528;19.760;2022-07-29T15:22:53;24.02;50.26
67502;SHT30;54349;52.528;19.760;2022-07-29T15:25:23;24.11;50.08
67502;SHT30;54349;52.528;19.760;2022-07-29T15:27:54;24.19;49.87
67502;SHT30;54349;52.528;19.760;2022-07-29T15:30:29;24.16;49.82
67502;SHT30;54349;52.528;19.760;2022-07-29T15:33:01;24.07;49.83
67502;SHT30;54349;52.528;19.760;2022-07-29T15:35:31;23.96;49.60
67502;SHT30;54349;52.528;19.760;2022-07-29T15:38:07;23.92;50.27
67502;SHT30;54349;52.528;19.760;2022-07-29T15:40:38;23.99;50.15
67502;SHT30;54349;52.528;19.760;2022-07-29T15:43:11;24.10;50.16
67502;SHT30;54349;52.528;19.760;2022-07-29T15:45:40;24.20;49.79
67502;SHT30;54349;52.528;19.760;2022-07-29T15:48:33;24.28;49.70
67502;SHT30;54349;52.528;19.760;2022-07-29T15:51:06;24.23;49.61
67502;SHT30;54349;52.528;19.760;2022-07-29T15:53:34;24.11;49.47
67502;SHT30;54349;52.528;19.760;2022-07-29T15:56:02;24.01;49.68
67502;SHT30;54349;52.528;19.760;2022-07-29T15:58:31;24.01;49.80
67502;SHT30;54349;52.528;19.760;2022-07-29T16:00:59;24.08;49.73
67502;SHT30;54349;52.528;19.760;2022-07-29T16:03:28;24.17;49.62
67502;SHT30;54349;52.528;19.760;2022-07-29T16:05:56;24.27;49.57
67502;SHT30;54349;52.528;19.760;2022-07-29T16:08:25;24.23;49.41
67502;SHT30;54349;52.528;19.760;2022-07-29T16:10:53;24.11;49.47
67502;SHT30;54349;52.528;19.760;2022-07-29T16:13:21;24.02;49.92
67502;SHT30;54349;52.528;19.760;2022-07-29T16:15:50;24.06;49.88
67502;SHT30;54349;52.528;19.760;2022-07-29T16:18:29;24.15;49.75
67502;SHT30;54349;52.528;19.760;2022-07-29T16:20:57;24.24;49.56
67502;SHT30;54349;52.528;19.760;2022-07-29T16:23:25;24.30;49.23
67502;SHT30;54349;52.528;19.760;2022-07-29T16:25:53;24.24;49.13
67502;SHT30;54349;52.528;19.760;2022-07-29T16:28:28;24.09;49.15
67502;SHT30;54349;52.528;19.760;2022-07-29T16:30:57;24.01;49.57
67502;SHT30;54349;52.528;19.760;2022-07-29T16:33:26;24.07;49.57
67502;SHT30;54349;52.528;19.760;2022-07-29T16:36:15;24.15;49.44
67502;SHT30;54349;52.528;19.760;2022-07-29T16:38:45;24.23;49.27
67502;SHT30;54349;52.528;19.760;2022-07-29T16:41:14;24.23;49.02
67502;SHT30;54349;52.528;19.760;2022-07-29T16:43:42;24.11;49.11
67502;SHT30;54349;52.528;19.760;2022-07-29T16:46:11;24.03;49.56
67502;SHT30;54349;52.528;19.760;2022-07-29T16:48:45;24.06;49.45